Time;durP1;ratioP1;P1;durP2;ratioP2;P2;SDS_P1;SDS_P2;PMS_P1;PMS_P2;Temp;Humidity;BMP_temperature;BMP_pressure;BME280_temperature;BME280_humidity;BME280_pressure;Samples;Min_cycle;Max_cycle;Signal;HPM_P1;HPM_P2
2021/06/17 00:02:25;;;;;;;4.53;3.40;;;19.80;99.90;;;;;;5050596;28;20210;-56
2021/06/17 00:04:52;;;;;;;3.95;2.78;;;19.80;99.90;;;;;;5050508;28;20205;-54
2021/06/17 00:07:18;;;;;;;4.32;3.35;;;19.70;99.90;;;;;;5050719;28;20229;-53
2021/06/17 00:09:45;;;;;;;5.30;3.17;;;19.70;99.90;;;;;;5050488;28;20206;-53
2021/06/17 00:12:12;;;;;;;5.28;3.28;;;19.70;99.90;;;;;;5050346;28;20209;-55
2021/06/17 00:14:39;;;;;;;5.00;3.15;;;19.70;99.90;;;;;;5050699;28;20208;-53
2021/06/17 00:17:08;;;;;;;6.50;3.20;;;19.60;99.90;;;;;;5054183;28;20210;-53
2021/06/17 00:19:34;;;;;;;3.53;2.92;;;19.60;99.90;;;;;;5054033;28;20232;-54
2021/06/17 00:22:01;;;;;;;4.05;3.20;;;19.50;99.90;;;;;;5053888;28;20213;-53
2021/06/17 00:24:28;;;;;;;3.85;3.25;;;19.50;99.90;;;;;;5054107;28;20297;-57
2021/06/17 00:26:54;;;;;;;7.30;2.95;;;19.40;99.90;;;;;;5053581;28;20208;-54
2021/06/17 00:29:22;;;;;;;6.80;3.38;;;19.70;99.90;;;;;;5053812;28;20202;-53
2021/06/17 00:31:49;;;;;;;4.22;3.13;;;19.40;99.90;;;;;;5053780;28;20210;-55
2021/06/17 00:34:17;;;;;;;6.88;3.05;;;19.40;99.90;;;;;;5053627;28;20202;-54
2021/06/17 00:36:44;;;;;;;6.30;3.33;;;19.40;99.90;;;;;;5053492;28;20201;-52
2021/06/17 00:39:11;;;;;;;6.10;2.70;;;19.40;99.90;;;;;;5053131;28;20230;-53
2021/06/17 00:41:38;;;;;;;4.00;2.83;;;19.30;99.90;;;;;;5053212;28;20210;-53
2021/06/17 00:44:06;;;;;;;4.47;2.95;;;19.40;99.90;;;;;;5053378;28;20206;-55
2021/06/17 00:46:33;;;;;;;3.70;3.10;;;19.50;99.90;;;;;;5053234;28;20701;-54
2021/06/17 00:49:00;;;;;;;4.00;2.90;;;19.50;99.90;;;;;;5053113;28;20229;-57
2021/06/17 00:51:28;;;;;;;3.63;3.03;;;19.60;99.90;;;;;;5053282;28;20197;-57
2021/06/17 00:53:55;;;;;;;3.70;3.08;;;19.60;99.90;;;;;;5052996;28;20206;-57
2021/06/17 00:56:22;;;;;;;6.10;3.28;;;19.50;99.90;;;;;;5053080;28;20226;-56
2021/06/17 00:58:49;;;;;;;3.60;3.10;;;19.50;99.90;;;;;;5053250;28;20244;-56
2021/06/17 01:01:16;;;;;;;5.93;3.40;;;19.50;99.90;;;;;;5053431;28;20232;-56
2021/06/17 01:03:42;;;;;;;5.88;3.13;;;19.50;99.90;;;;;;5053223;28;20220;-55
2021/06/17 01:06:10;;;;;;;4.72;3.25;;;19.50;99.90;;;;;;5053498;28;20217;-55
2021/06/17 01:08:48;;;;;;;4.28;3.03;;;19.40;99.90;;;;;;5052811;28;20241;-54
2021/06/17 01:11:19;;;;;;;5.05;2.90;;;19.30;99.90;;;;;;5053427;28;20201;-56
2021/06/17 01:13:51;;;;;;;4.57;2.90;;;19.30;99.90;;;;;;5053053;28;20206;-56
2021/06/17 01:16:23;;;;;;;5.15;3.20;;;19.30;99.90;;;;;;5053240;28;20217;-56
2021/06/17 01:18:52;;;;;;;5.40;3.10;;;19.30;99.90;;;;;;5052769;28;20594;-56
2021/06/17 01:21:31;;;;;;;5.82;3.30;;;19.30;99.90;;;;;;5052815;28;20685;-55
2021/06/17 01:24:26;;;;;;;4.07;3.00;;;19.20;99.90;;;;;;5052900;28;20615;-56
2021/06/17 01:27:16;;;;;;;4.32;3.22;;;19.60;99.90;;;;;;5052343;28;20224;-54
2021/06/17 01:29:48;;;;;;;4.95;2.83;;;19.20;99.90;;;;;;5049709;28;20228;-54
2021/06/17 01:32:16;;;;;;;4.90;2.90;;;19.30;99.90;;;;;;5052746;28;20209;-56
2021/06/17 01:34:44;;;;;;;3.33;3.00;;;19.30;99.90;;;;;;5052471;28;20201;-56
2021/06/17 01:37:15;;;;;;;6.75;3.40;;;19.30;99.90;;;;;;5052279;28;20672;-56
2021/06/17 01:39:42;;;;;;;4.57;3.03;;;19.20;99.90;;;;;;5052386;28;20229;-57
2021/06/17 01:42:11;;;;;;;3.40;3.10;;;19.20;99.90;;;;;;5052183;28;20669;-56
2021/06/17 01:44:39;;;;;;;4.20;3.10;;;19.10;99.90;;;;;;5052066;28;20630;-57
2021/06/17 01:47:08;;;;;;;5.22;2.90;;;19.20;99.90;;;;;;5052105;28;20677;-58
2021/06/17 01:49:36;;;;;;;4.78;3.10;;;19.20;99.90;;;;;;5052116;28;20206;-57
2021/06/17 01:52:06;;;;;;;4.20;3.40;;;19.10;99.90;;;;;;5052029;28;20209;-57
2021/06/17 01:54:34;;;;;;;4.38;3.20;;;19.10;99.90;;;;;;5051952;28;20214;-57
2021/06/17 01:57:01;;;;;;;5.97;3.28;;;19.00;99.90;;;;;;5051968;28;20206;-56
2021/06/17 01:59:31;;;;;;;4.13;3.05;;;18.90;99.90;;;;;;5110255;22;20262;-57
2021/06/17 02:01:59;;;;;;;4.72;3.13;;;18.90;99.90;;;;;;5092660;28;20287;-58
2021/06/17 02:04:29;;;;;;;4.70;3.40;;;18.90;99.90;;;;;;5092279;28;20204;-57
2021/06/17 02:06:58;;;;;;;5.28;3.47;;;18.90;99.90;;;;;;5092255;28;20608;-57
2021/06/17 02:09:26;;;;;;;5.40;3.22;;;18.90;99.90;;;;;;5092157;28;20224;-57
2021/06/17 02:11:54;;;;;;;5.63;3.10;;;18.90;99.90;;;;;;5092243;28;20600;-57
2021/06/17 02:14:21;;;;;;;5.68;3.47;;;19.00;99.90;;;;;;5092344;28;20676;-57
2021/06/17 02:16:50;;;;;;;6.43;3.05;;;18.90;99.90;;;;;;5092181;28;20207;-57
2021/06/17 02:19:19;;;;;;;6.95;3.33;;;18.90;99.90;;;;;;5092137;28;20220;-57
2021/06/17 02:21:51;;;;;;;5.63;3.15;;;18.80;99.90;;;;;;5092576;28;20224;-58
2021/06/17 02:24:21;;;;;;;5.32;3.20;;;18.70;99.90;;;;;;5091964;28;20606;-57
2021/06/17 02:26:51;;;;;;;6.97;3.70;;;18.70;99.90;;;;;;5091783;28;20680;-58
2021/06/17 02:29:19;;;;;;;5.07;3.20;;;18.80;99.90;;;;;;5091579;28;20437;-58
2021/06/17 02:31:49;;;;;;;5.10;3.50;;;18.80;99.90;;;;;;5091929;28;20602;-58
2021/06/17 02:34:17;;;;;;;4.10;2.95;;;18.90;99.90;;;;;;5091959;28;20197;-58
2021/06/17 02:36:46;;;;;;;6.82;3.22;;;18.90;99.90;;;;;;5091924;28;20207;-58
2021/06/17 02:39:20;;;;;;;5.18;3.42;;;19.00;99.90;;;;;;5091438;28;20223;-57
2021/06/17 02:41:51;;;;;;;5.05;3.55;;;19.10;99.90;;;;;;5091621;28;20731;-57
2021/06/17 02:44:19;;;;;;;6.28;3.58;;;19.10;99.90;;;;;;5091270;28;20211;-58
2021/06/17 02:46:46;;;;;;;6.95;3.55;;;19.10;99.90;;;;;;5091563;28;20204;-58
2021/06/17 02:49:13;;;;;;;4.32;3.40;;;19.00;99.90;;;;;;5091094;28;20738;-58
2021/06/17 02:51:40;;;;;;;4.18;3.78;;;19.00;99.90;;;;;;5091509;28;20226;-58
2021/06/17 02:54:06;;;;;;;8.20;3.80;;;19.50;99.90;;;;;;5091484;28;20227;-57
2021/06/17 02:56:45;;;;;;;6.97;3.80;;;19.00;99.90;;;;;;5091784;28;20204;-58
2021/06/17 02:59:29;;;;;;;6.90;3.60;;;19.00;99.90;;;;;;5090960;28;20639;-57
2021/06/17 03:02:00;;;;;;;6.90;3.13;;;19.00;99.90;;;;;;5091063;28;20224;-58
2021/06/17 03:04:33;;;;;;;4.90;3.50;;;19.00;99.90;;;;;;5091157;28;20235;-57
2021/06/17 03:07:02;;;;;;;7.93;3.63;;;19.00;99.90;;;;;;5091281;28;20212;-58
2021/06/17 03:09:34;;;;;;;5.22;4.63;;;19.10;99.90;;;;;;5090806;28;20224;-58
2021/06/17 03:12:03;;;;;;;6.05;3.83;;;19.10;99.90;;;;;;5091367;28;20204;-57
2021/06/17 03:14:35;;;;;;;5.40;3.88;;;19.10;99.90;;;;;;5091030;28;20215;-58
2021/06/17 03:17:03;;;;;;;3.55;3.25;;;19.20;99.90;;;;;;5091028;28;20200;-57
2021/06/17 03:19:31;;;;;;;6.93;3.30;;;19.20;99.90;;;;;;5090707;28;20267;-58
2021/06/17 03:22:04;;;;;;;5.97;3.45;;;19.10;99.90;;;;;;5090781;28;20216;-58
2021/06/17 03:24:36;;;;;;;4.57;3.10;;;19.10;99.90;;;;;;5091262;28;20204;-58
2021/06/17 03:27:07;;;;;;;3.92;3.35;;;19.00;99.90;;;;;;5091056;28;20215;-57
2021/06/17 03:29:37;;;;;;;3.65;3.20;;;18.90;99.90;;;;;;5091234;28;20225;-58
2021/06/17 03:32:06;;;;;;;5.43;3.55;;;18.90;99.90;;;;;;5091055;28;20204;-57
2021/06/17 03:34:33;;;;;;;7.03;3.70;;;18.80;99.90;;;;;;5090735;28;20207;-57
2021/06/17 03:37:01;;;;;;;5.75;4.35;;;18.80;99.90;;;;;;5090662;28;20705;-58
2021/06/17 03:39:29;;;;;;;3.47;3.08;;;18.80;99.90;;;;;;5090890;28;20298;-57
2021/06/17 03:42:00;;;;;;;5.65;3.47;;;18.90;99.90;;;;;;5090762;28;20273;-57
2021/06/17 03:44:29;;;;;;;5.20;3.47;;;18.90;99.90;;;;;;5090651;28;20320;-57
2021/06/17 03:46:57;;;;;;;8.32;4.20;;;18.90;99.90;;;;;;5090534;28;20253;-57
2021/06/17 03:49:25;;;;;;;5.57;4.32;;;18.90;99.90;;;;;;5090845;28;20235;-57
2021/06/17 03:51:52;;;;;;;5.35;4.68;;;18.90;99.90;;;;;;5094347;28;20203;-57
2021/06/17 03:54:24;;;;;;;5.63;4.25;;;18.90;99.90;;;;;;5094686;28;20294;-58
2021/06/17 03:56:53;;;;;;;4.88;4.38;;;18.90;99.90;;;;;;5094721;28;20215;-58
2021/06/17 03:59:22;;;;;;;5.10;4.10;;;18.90;99.90;;;;;;5094267;28;20304;-58
2021/06/17 04:01:51;;;;;;;9.35;4.28;;;18.60;99.90;;;;;;5094505;28;20235;-58
2021/06/17 04:04:18;;;;;;;5.30;4.40;;;18.90;99.90;;;;;;5094454;28;20215;-57
2021/06/17 04:06:49;;;;;;;6.88;4.07;;;19.00;99.90;;;;;;5094527;28;20212;-58
2021/06/17 04:09:24;;;;;;;9.70;4.55;;;19.00;99.90;;;;;;5094106;28;20228;-57
2021/06/17 04:11:51;;;;;;;9.45;4.20;;;19.10;99.90;;;;;;5094287;28;20226;-58
2021/06/17 04:14:18;;;;;;;5.85;4.70;;;19.10;99.90;;;;;;5094250;28;20231;-58
2021/06/17 04:16:46;;;;;;;8.47;4.30;;;19.10;99.90;;;;;;5094207;28;20206;-57
2021/06/17 04:19:15;;;;;;;5.50;4.22;;;19.10;99.90;;;;;;5094112;28;20231;-58
2021/06/17 04:21:42;;;;;;;6.28;4.78;;;19.10;99.90;;;;;;5094189;28;20220;-57
2021/06/17 04:24:10;;;;;;;8.88;5.00;;;19.20;99.90;;;;;;5094005;28;20607;-58
2021/06/17 04:26:38;;;;;;;5.68;4.85;;;19.30;99.90;;;;;;5094093;28;20208;-58
2021/06/17 04:29:05;;;;;;;6.40;4.57;;;19.30;99.90;;;;;;5094083;28;20617;-57
2021/06/17 04:31:32;;;;;;;6.00;4.75;;;19.30;99.90;;;;;;5094331;28;20211;-58
2021/06/17 04:33:59;;;;;;;6.18;4.72;;;19.20;99.90;;;;;;5094233;28;20204;-57
2021/06/17 04:36:27;;;;;;;7.68;4.78;;;19.30;99.90;;;;;;5094177;28;20204;-58
2021/06/17 04:38:53;;;;;;;11.48;5.43;;;19.30;99.90;;;;;;5094211;28;20224;-57
2021/06/17 04:41:20;;;;;;;7.45;4.50;;;19.60;99.90;;;;;;5094176;28;20231;-57
2021/06/17 04:43:49;;;;;;;6.20;4.43;;;19.80;99.90;;;;;;5094321;28;20208;-57
2021/06/17 04:46:18;;;;;;;6.15;3.92;;;20.10;99.90;;;;;;5094174;28;20224;-58
2021/06/17 04:48:47;;;;;;;7.32;3.85;;;21.50;99.90;;;;;;5093823;28;20220;-57
2021/06/17 04:51:16;;;;;;;7.65;4.22;;;23.60;99.90;;;;;;5093864;28;20207;-58
2021/06/17 04:53:44;;;;;;;7.25;3.53;;;25.70;99.90;;;;;;5093455;28;20208;-58
2021/06/17 04:56:12;;;;;;;5.30;3.60;;;27.60;96.60;;;;;;5093791;28;20212;-58
2021/06/17 04:58:39;;;;;;;7.65;2.95;;;29.30;91.20;;;;;;5092711;28;20232;-57
2021/06/17 05:01:06;;;;;;;5.53;3.30;;;30.60;84.00;;;;;;5091823;28;20227;-58
2021/06/17 05:03:33;;;;;;;8.25;3.20;;;31.50;76.30;;;;;;5091324;28;20625;-58
2021/06/17 05:06:01;;;;;;;6.15;3.53;;;32.20;71.80;;;;;;5092297;28;20204;-57
2021/06/17 05:11:13;;;;;;;4.97;3.17;;;33.90;61.80;;;;;;5092187;28;20218;-58
2021/06/17 05:13:42;;;;;;;7.63;3.00;;;34.10;60.40;;;;;;5091865;28;20200;-58
2021/06/17 05:16:09;;;;;;;7.13;3.25;;;34.60;57.90;;;;;;5092400;28;20208;-57
2021/06/17 05:18:36;;;;;;;5.57;3.50;;;35.40;55.40;;;;;;5091880;28;20228;-59
2021/06/17 05:21:03;;;;;;;4.43;3.20;;;36.10;54.40;;;;;;5092139;28;20224;-58
2021/06/17 05:23:30;;;;;;;6.80;5.28;;;36.80;53.10;;;;;;5092516;28;20212;-58
2021/06/17 05:25:59;;;;;;;3.35;2.95;;;37.50;50.20;;;;;;5092379;28;20204;-57
2021/06/17 05:28:29;;;;;;;5.10;2.85;;;38.10;49.10;;;;;;5092263;28;20220;-58
2021/06/17 05:30:57;;;;;;;3.67;3.00;;;38.80;47.50;;;;;;5091949;28;20211;-58
2021/06/17 05:33:24;;;;;;;5.82;2.90;;;39.60;45.30;;;;;;5092008;28;20235;-58
2021/06/17 05:35:51;;;;;;;4.90;2.58;;;40.40;44.40;;;;;;5092103;28;20262;-58
2021/06/17 05:38:19;;;;;;;4.03;2.50;;;41.10;42.40;;;;;;5092245;28;20224;-58
2021/06/17 05:40:46;;;;;;;8.35;2.80;;;41.50;41.60;;;;;;5092870;28;20261;-57
2021/06/17 05:43:14;;;;;;;4.47;3.50;;;41.80;41.00;;;;;;5093056;28;20200;-58
2021/06/17 05:45:44;;;;;;;3.08;2.38;;;42.20;40.30;;;;;;5092797;28;20215;-58
2021/06/17 05:48:11;;;;;;;2.72;2.10;;;42.30;39.50;;;;;;5091967;28;20220;-58
2021/06/17 05:50:38;;;;;;;5.97;2.67;;;42.30;39.50;;;;;;5091633;28;20266;-58
2021/06/17 05:53:05;;;;;;;6.47;3.00;;;42.50;39.40;;;;;;5091354;28;20211;-59
2021/06/17 05:55:32;;;;;;;3.55;2.28;;;42.60;38.80;;;;;;5091378;28;20203;-58
2021/06/17 05:57:59;;;;;;;7.50;2.50;;;42.60;38.40;;;;;;5089331;28;63280;-59
2021/06/17 06:00:26;;;;;;;6.03;2.88;;;42.80;38.00;;;;;;5092409;28;20215;-58
2021/06/17 06:02:54;;;;;;;3.75;2.20;;;43.10;37.50;;;;;;5092294;28;20231;-58
2021/06/17 06:05:21;;;;;;;5.45;2.47;;;43.40;36.30;;;;;;5092129;28;20711;-59
2021/06/17 06:07:55;;;;;;;4.65;2.33;;;43.70;36.20;;;;;;5092091;28;20626;-59
2021/06/17 06:10:22;;;;;;;5.72;2.78;;;44.10;35.50;;;;;;5092001;28;20240;-58
2021/06/17 06:12:49;;;;;;;3.63;2.60;;;44.20;35.10;;;;;;5091574;28;20204;-59
2021/06/17 06:15:15;;;;;;;4.45;2.42;;;44.20;34.90;;;;;;5092005;28;20215;-59
2021/06/17 06:17:42;;;;;;;4.03;2.35;;;44.30;34.60;;;;;;5091897;28;20246;-59
2021/06/17 06:20:11;;;;;;;3.70;2.15;;;44.40;34.60;;;;;;5092042;28;20204;-60
2021/06/17 06:22:38;;;;;;;4.30;2.33;;;44.40;34.50;;;;;;5091330;28;20609;-59
2021/06/17 06:25:06;;;;;;;4.38;2.22;;;44.00;34.80;;;;;;5091277;28;20675;-60
2021/06/17 06:27:33;;;;;;;3.88;2.40;;;43.80;35.10;;;;;;5091569;28;20204;-59
2021/06/17 06:30:03;;;;;;;7.15;2.20;;;44.00;34.80;;;;;;5091936;28;20200;-60
2021/06/17 06:32:30;;;;;;;5.50;2.33;;;44.30;34.40;;;;;;5091685;28;20572;-60
2021/06/17 06:34:57;;;;;;;3.53;2.50;;;44.50;34.10;;;;;;5091478;28;20211;-59
2021/06/17 06:37:26;;;;;;;6.57;2.80;;;44.70;33.70;;;;;;5091592;28;20683;-59
2021/06/17 06:39:53;;;;;;;5.32;2.60;;;44.70;34.10;;;;;;5091306;28;20199;-63
2021/06/17 06:42:19;;;;;;;5.20;2.50;;;44.90;33.80;;;;;;5088821;28;20227;-61
2021/06/17 06:44:46;;;;;;;3.85;2.25;;;45.20;33.30;;;;;;5091624;28;20215;-60
2021/06/17 06:47:13;;;;;;;4.50;2.40;;;45.20;33.40;;;;;;5091155;28;20666;-60
2021/06/17 06:49:39;;;;;;;4.72;2.63;;;45.40;33.00;;;;;;5091404;28;20223;-60
2021/06/17 06:52:07;;;;;;;2.95;2.20;;;45.00;33.20;;;;;;5077534;28;20212;-61
2021/06/17 06:54:35;;;;;;;4.18;2.38;;;45.10;33.10;;;;;;5070839;28;20586;-60
2021/06/17 06:57:01;;;;;;;4.47;2.40;;;45.30;33.00;;;;;;5070917;28;20208;-60
2021/06/17 06:59:28;;;;;;;4.80;2.70;;;45.40;33.00;;;;;;5070366;28;20243;-60
2021/06/17 07:01:56;;;;;;;6.78;2.53;;;44.90;33.30;;;;;;5071187;28;20216;-60
2021/06/17 07:04:22;;;;;;;5.05;2.28;;;44.60;33.70;;;;;;5070890;28;20251;-60
2021/06/17 07:06:49;;;;;;;5.40;2.38;;;44.60;33.70;;;;;;5070842;28;20231;-60
2021/06/17 07:09:16;;;;;;;4.20;2.53;;;44.80;33.50;;;;;;5071203;28;20224;-60
2021/06/17 07:11:45;;;;;;;3.60;2.60;;;45.00;33.10;;;;;;5070887;28;20514;-65
2021/06/17 07:14:12;;;;;;;2.75;2.40;;;44.70;33.80;;;;;;5084935;28;20599;-63
2021/06/17 07:16:39;;;;;;;3.17;2.88;;;44.20;34.30;;;;;;5091037;28;20214;-62
2021/06/17 07:19:07;;;;;;;2.95;2.25;;;44.40;34.40;;;;;;5090914;28;20517;-63
2021/06/17 07:21:34;;;;;;;5.35;2.33;;;44.90;33.50;;;;;;5091323;28;20277;-63
2021/06/17 07:24:01;;;;;;;3.42;2.40;;;45.10;33.20;;;;;;5091139;28;20664;-64
2021/06/17 07:26:27;;;;;;;9.02;2.85;;;45.20;33.30;;;;;;5094369;28;20203;-64
2021/06/17 07:28:56;;;;;;;3.28;2.45;;;45.40;33.20;;;;;;5094809;28;20710;-63
2021/06/17 07:31:23;;;;;;;4.10;2.20;;;45.50;33.00;;;;;;5095338;28;20203;-63
2021/06/17 07:33:50;;;;;;;4.60;2.40;;;45.60;32.90;;;;;;5094944;28;20203;-63
2021/06/17 07:36:17;;;;;;;4.65;2.60;;;46.00;32.70;;;;;;5094726;28;20201;-60
2021/06/17 07:38:44;;;;;;;4.20;2.50;;;46.20;32.30;;;;;;5095127;28;20230;-60
2021/06/17 07:41:11;;;;;;;5.43;2.53;;;46.10;32.20;;;;;;5094777;28;20211;-60
2021/06/17 07:43:38;;;;;;;2.67;2.40;;;46.10;32.20;;;;;;5094333;28;20223;-60
2021/06/17 07:46:06;;;;;;;6.05;2.35;;;46.30;32.20;;;;;;5094946;28;20207;-60
2021/06/17 07:48:34;;;;;;;3.53;2.13;;;47.00;31.40;;;;;;5094859;28;20231;-60
2021/06/17 07:51:01;;;;;;;5.63;2.50;;;47.20;31.10;;;;;;5094812;28;20629;-62
2021/06/17 07:53:27;;;;;;;3.15;2.25;;;46.90;31.80;;;;;;5094923;28;20214;-60
2021/06/17 07:55:54;;;;;;;4.40;2.35;;;46.90;31.90;;;;;;5094767;28;20211;-60
2021/06/17 07:58:21;;;;;;;4.55;2.58;;;46.90;31.90;;;;;;5095001;28;20235;-59
2021/06/17 08:00:48;;;;;;;7.32;2.50;;;46.90;31.60;;;;;;5094741;28;20287;-60
2021/06/17 08:03:16;;;;;;;4.20;2.33;;;46.80;31.80;;;;;;5094502;28;20215;-58
2021/06/17 08:05:43;;;;;;;3.55;2.38;;;46.90;32.00;;;;;;5094863;28;20208;-58
2021/06/17 08:08:09;;;;;;;2.60;2.35;;;46.90;31.80;;;;;;5094493;28;20227;-58
2021/06/17 08:10:37;;;;;;;7.55;2.45;;;46.80;32.00;;;;;;5094631;28;20203;-60
2021/06/17 08:13:04;;;;;;;6.20;2.50;;;46.90;31.60;;;;;;5094751;28;20210;-59
2021/06/17 08:15:30;;;;;;;4.20;2.20;;;46.70;32.00;;;;;;5094201;28;20204;-60
2021/06/17 08:17:57;;;;;;;3.78;2.30;;;46.10;32.20;;;;;;5094165;28;20235;-58
2021/06/17 08:20:25;;;;;;;4.10;2.35;;;46.40;32.40;;;;;;5094553;28;20210;-57
2021/06/17 08:22:52;;;;;;;3.97;2.22;;;46.70;32.00;;;;;;5094335;28;20250;-58
2021/06/17 08:25:19;;;;;;;3.35;2.40;;;46.50;32.20;;;;;;5094097;28;20203;-57
2021/06/17 08:27:46;;;;;;;2.53;2.33;;;45.90;32.60;;;;;;5093982;28;20230;-57
2021/06/17 08:30:14;;;;;;;2.40;2.00;;;45.60;33.20;;;;;;5094040;28;20210;-58
2021/06/17 08:32:42;;;;;;;5.80;2.40;;;45.70;33.00;;;;;;5094456;28;20210;-66
2021/06/17 08:35:10;;;;;;;6.85;2.72;;;46.10;32.60;;;;;;5076956;28;20200;-62
2021/06/17 08:37:38;;;;;;;3.47;2.58;;;46.70;32.10;;;;;;5073276;28;20556;-61
2021/06/17 08:40:06;;;;;;;3.85;2.50;;;47.10;31.80;;;;;;5073488;28;20312;-61
2021/06/17 08:42:33;;;;;;;6.15;2.70;;;47.60;31.40;;;;;;5073368;28;20231;-63
2021/06/17 08:45:02;;;;;;;5.38;2.50;;;48.10;31.00;;;;;;5072862;28;20208;-60
2021/06/17 08:47:30;;;;;;;4.25;2.47;;;47.80;31.30;;;;;;5073579;28;20560;-61
2021/06/17 08:49:59;;;;;;;3.13;2.13;;;47.10;31.70;;;;;;5073217;28;20676;-63
2021/06/17 08:52:32;;;;;;;5.25;2.53;;;46.10;32.80;;;;;;5073464;28;20204;-58
2021/06/17 08:55:11;;;;;;;4.13;2.42;;;44.40;34.20;;;;;;5073273;28;20204;-58
2021/06/17 08:57:38;;;;;;;4.80;2.58;;;42.30;36.10;;;;;;5072963;28;20232;-58
2021/06/17 09:00:30;;;;;;;6.22;2.78;;;40.70;38.20;;;;;;5073422;28;20214;-58
2021/06/17 09:03:01;;;;;;;6.03;3.00;;;38.90;40.30;;;;;;5072896;28;20229;-58
2021/06/17 09:05:28;;;;;;;4.93;2.90;;;37.40;42.80;;;;;;5072925;28;20235;-58
2021/06/17 09:07:55;;;;;;;5.75;2.95;;;36.40;44.20;;;;;;5072770;28;20229;-58
2021/06/17 09:10:24;;;;;;;5.25;3.15;;;35.60;45.70;;;;;;5073309;28;20603;-59
2021/06/17 09:12:52;;;;;;;5.18;2.83;;;34.80;46.80;;;;;;5072951;28;20209;-59
2021/06/17 09:15:30;;;;;;;3.13;2.83;;;34.20;48.00;;;;;;5072921;28;20274;-58
2021/06/17 09:18:16;;;;;;;3.30;2.95;;;33.70;48.60;;;;;;5073720;28;20236;-59
2021/06/17 09:20:48;;;;;;;7.68;3.00;;;33.40;49.00;;;;;;5073880;28;20215;-59
2021/06/17 09:23:19;;;;;;;4.03;2.60;;;33.10;49.50;;;;;;5072881;28;20221;-59
2021/06/17 09:25:48;;;;;;;4.20;2.75;;;32.90;50.20;;;;;;5072756;28;20213;-59
2021/06/17 09:28:15;;;;;;;5.47;3.20;;;32.80;51.00;;;;;;5072520;28;20253;-59
2021/06/17 09:30:42;;;;;;;5.03;3.90;;;32.60;51.50;;;;;;5072625;28;20224;-59
2021/06/17 09:33:11;;;;;;;4.80;3.05;;;32.60;51.50;;;;;;5072527;28;20683;-59
2021/06/17 09:35:49;;;;;;;4.57;2.60;;;32.70;51.20;;;;;;5072423;28;20208;-59
2021/06/17 09:38:16;;;;;;;7.35;4.32;;;32.80;52.00;;;;;;5072573;28;20311;-59
2021/06/17 09:40:46;;;;;;;5.22;3.10;;;33.00;51.80;;;;;;5072438;28;20668;-59
2021/06/17 09:43:20;;;;;;;4.93;3.10;;;33.00;51.40;;;;;;5072331;28;20821;-59
2021/06/17 09:45:58;;;;;;;5.38;3.30;;;33.10;51.30;;;;;;5072824;28;20205;-59
2021/06/17 09:48:44;;;;;;;5.70;3.08;;;33.20;51.40;;;;;;5071604;28;20708;-59
2021/06/17 09:51:26;;;;;;;8.30;3.47;;;33.40;52.00;;;;;;5072442;28;20211;-59
2021/06/17 09:53:54;;;;;;;8.57;3.13;;;33.80;51.50;;;;;;5072367;28;20227;-59
2021/06/17 09:56:32;;;;;;;5.97;3.47;;;34.30;49.60;;;;;;5072285;28;20205;-59
2021/06/17 09:59:00;;;;;;;6.18;3.03;;;34.70;49.50;;;;;;5071724;28;20228;-59
2021/06/17 10:01:34;;;;;;;6.25;3.67;;;34.90;49.30;;;;;;5071921;28;20216;-59
2021/06/17 10:04:03;;;;;;;5.20;3.22;;;34.90;48.70;;;;;;5071857;28;20221;-59
2021/06/17 10:06:30;;;;;;;3.25;2.45;;;35.00;47.10;;;;;;5072296;28;20204;-59
2021/06/17 10:08:57;;;;;;;4.13;2.97;;;34.80;44.20;;;;;;5071728;28;20224;-59
2021/06/17 10:11:23;;;;;;;4.45;2.63;;;34.60;45.60;;;;;;5071715;28;20205;-59
2021/06/17 10:13:50;;;;;;;9.38;3.80;;;34.30;46.40;;;;;;5071705;28;20652;-59
2021/06/17 10:16:19;;;;;;;6.03;2.58;;;34.00;47.50;;;;;;5071819;28;20205;-59
2021/06/17 10:18:46;;;;;;;4.65;2.70;;;33.80;46.90;;;;;;5071402;28;20228;-59
2021/06/17 10:21:17;;;;;;;5.18;2.80;;;33.60;47.90;;;;;;5071747;28;20209;-59
2021/06/17 10:23:45;;;;;;;4.45;2.90;;;33.40;48.50;;;;;;5071472;28;20228;-59
2021/06/17 10:26:13;;;;;;;4.82;2.95;;;33.30;47.90;;;;;;5071791;28;20551;-59
2021/06/17 10:28:42;;;;;;;4.05;2.70;;;33.20;48.60;;;;;;5071306;28;20221;-59
2021/06/17 10:31:09;;;;;;;4.55;2.83;;;33.10;48.60;;;;;;5071728;28;20207;-59
2021/06/17 10:33:39;;;;;;;8.63;4.53;;;33.00;48.60;;;;;;5071349;28;20205;-59
2021/06/17 10:36:37;;;;;;;5.75;3.00;;;32.90;49.30;;;;;;5071446;28;20212;-59
2021/06/17 10:39:17;;;;;;;6.72;3.20;;;33.00;49.30;;;;;;5058984;28;20248;-59
2021/06/17 10:42:14;;;;;;;8.95;3.30;;;33.10;49.10;;;;;;5071223;28;20246;-59
2021/06/17 10:44:47;;;;;;;6.57;2.90;;;33.20;50.10;;;;;;5071189;28;20261;-59
2021/06/17 10:48:04;;;;;;;5.75;2.78;;;33.30;49.30;;;;;;5071701;28;20207;-59
2021/06/17 10:51:00;;;;;;;6.40;3.10;;;33.20;48.10;;;;;;5071416;28;20200;-59
2021/06/17 10:53:32;;;;;;;6.03;2.90;;;33.20;48.80;;;;;;5071366;28;20263;-59
2021/06/17 10:56:02;;;;;;;6.60;2.90;;;33.20;49.10;;;;;;5071148;28;20219;-59
2021/06/17 10:59:06;;;;;;;7.30;2.90;;;33.30;49.00;;;;;;5071013;28;20773;-59
2021/06/17 11:02:07;;;;;;;3.28;2.50;;;33.20;48.20;;;;;;5071464;28;20211;-59
2021/06/17 11:04:38;;;;;;;7.65;2.70;;;33.20;46.20;;;;;;5071010;28;20583;-58
2021/06/17 11:07:26;;;;;;;6.82;2.67;;;33.20;46.80;;;;;;5071663;28;20224;-59
2021/06/17 11:10:11;;;;;;;4.13;2.50;;;33.30;46.90;;;;;;5071094;28;20205;-59
2021/06/17 11:12:57;;;;;;;6.18;3.08;;;33.40;46.90;;;;;;5071119;28;20227;-59
2021/06/17 11:15:44;;;;;;;6.20;2.47;;;33.50;46.70;;;;;;5071156;28;20240;-59
2021/06/17 11:18:11;;;;;;;5.63;2.47;;;33.40;46.30;;;;;;5071041;28;20259;-59
2021/06/17 11:20:41;;;;;;;3.13;2.47;;;33.50;46.20;;;;;;5071026;28;20580;-59
2021/06/17 11:23:10;;;;;;;5.10;2.38;;;33.60;45.50;;;;;;5070590;28;20224;-58
2021/06/17 11:25:45;;;;;;;5.13;2.42;;;33.50;44.90;;;;;;5070919;28;20227;-58
2021/06/17 11:28:14;;;;;;;4.50;2.30;;;33.40;44.80;;;;;;5070829;28;20224;-59
2021/06/17 11:30:57;;;;;;;5.90;2.28;;;33.40;45.10;;;;;;5070810;28;20295;-59
2021/06/17 11:33:48;;;;;;;6.15;2.40;;;33.50;43.90;;;;;;5070716;28;20260;-59
2021/06/17 11:36:17;;;;;;;4.72;2.55;;;33.60;44.10;;;;;;5070965;28;20204;-59
2021/06/17 11:38:48;;;;;;;3.90;2.70;;;33.70;45.00;;;;;;5070534;28;20229;-59
2021/06/17 11:41:18;;;;;;;5.32;2.85;;;33.70;45.10;;;;;;5070818;28;20211;-59
2021/06/17 11:43:52;;;;;;;3.75;2.47;;;33.80;44.70;;;;;;5070582;28;20236;-59
2021/06/17 11:46:21;;;;;;;3.13;2.20;;;33.90;44.30;;;;;;5070451;28;20220;-59
2021/06/17 11:48:56;;;;;;;4.00;2.30;;;34.10;44.00;;;;;;5070541;28;20232;-59
2021/06/17 11:51:23;;;;;;;4.45;2.17;;;34.30;43.70;;;;;;5070934;28;20205;-59
2021/06/17 11:53:53;;;;;;;2.95;2.50;;;34.40;43.20;;;;;;5070619;28;20259;-59
2021/06/17 11:56:31;;;;;;;3.67;2.40;;;34.50;43.10;;;;;;5070692;28;20231;-59
2021/06/17 11:59:16;;;;;;;2.78;2.40;;;34.50;43.40;;;;;;5070410;28;20239;-59
2021/06/17 12:02:07;;;;;;;4.20;2.28;;;34.60;43.50;;;;;;5070608;28;20233;-59
2021/06/17 12:04:42;;;;;;;2.95;2.50;;;34.50;43.40;;;;;;5070143;28;20746;-59
2021/06/17 12:07:09;;;;;;;3.00;2.50;;;34.50;43.50;;;;;;5070534;28;20204;-59
2021/06/17 12:09:38;;;;;;;3.90;2.08;;;34.40;43.40;;;;;;5070226;28;20225;-59
2021/06/17 12:12:19;;;;;;;4.38;2.30;;;34.40;43.10;;;;;;5072424;28;20209;-59
2021/06/17 12:14:47;;;;;;;4.40;2.20;;;34.40;43.40;;;;;;5074280;28;20211;-59
2021/06/17 12:17:27;;;;;;;4.47;2.20;;;34.50;43.10;;;;;;5074109;28;20216;-59
2021/06/17 12:19:54;;;;;;;3.42;2.30;;;34.70;42.70;;;;;;5074188;28;20216;-58
2021/06/17 12:22:21;;;;;;;2.50;2.30;;;34.70;42.40;;;;;;5074701;28;20208;-58
2021/06/17 12:24:49;;;;;;;4.90;2.80;;;34.80;42.50;;;;;;5074343;28;20229;-58
2021/06/17 12:27:17;;;;;;;3.13;2.30;;;34.70;42.90;;;;;;5073914;28;20594;-58
2021/06/17 12:29:45;;;;;;;5.47;2.33;;;34.40;43.60;;;;;;5073456;28;20205;-58
2021/06/17 12:32:12;;;;;;;3.60;2.40;;;34.30;44.30;;;;;;5074278;28;20205;-58
2021/06/17 12:34:40;;;;;;;3.03;2.60;;;34.30;43.90;;;;;;5073582;28;20219;-58
2021/06/17 12:37:09;;;;;;;4.47;2.38;;;34.30;43.50;;;;;;5073764;28;20259;-58
2021/06/17 12:39:37;;;;;;;3.25;2.42;;;34.40;43.00;;;;;;5073676;28;20229;-58
2021/06/17 12:42:12;;;;;;;3.75;2.28;;;34.40;43.00;;;;;;5074349;28;20243;-61
2021/06/17 12:44:40;;;;;;;5.43;3.05;;;34.40;42.30;;;;;;5073589;28;20692;-58
2021/06/17 12:47:11;;;;;;;4.70;2.50;;;34.40;42.20;;;;;;5073886;28;20205;-59
2021/06/17 12:52:26;;;;;;;4.95;2.10;;;34.60;43.10;;;;;;5073748;28;20212;-58
2021/06/17 12:54:53;;;;;;;3.90;2.22;;;34.60;43.30;;;;;;5074040;28;20236;-58
2021/06/17 12:57:22;;;;;;;3.38;2.33;;;34.60;43.50;;;;;;5073262;28;20205;-60
2021/06/17 12:59:55;;;;;;;4.40;2.67;;;34.50;42.90;;;;;;5073153;28;20205;-58
2021/06/17 13:02:44;;;;;;;3.70;2.70;;;34.40;43.40;;;;;;5073378;28;20661;-58
2021/06/17 13:05:13;;;;;;;4.93;2.58;;;34.50;43.40;;;;;;5072839;28;20221;-59
2021/06/17 13:07:59;;;;;;;2.80;2.42;;;34.50;43.40;;;;;;5073104;28;20227;-58
2021/06/17 13:10:27;;;;;;;5.78;2.25;;;34.50;43.50;;;;;;5073135;28;20228;-58